createdAt,value
2018-10-18T00:00:50.206Z,12.13
2018-10-18T00:03:22.854Z,12.37
2018-10-18T00:05:58.836Z,13.63
2018-10-18T00:08:32.040Z,16.30
2018-10-18T00:11:05.828Z,18.60
2018-10-18T00:13:38.610Z,21.97
2018-10-18T00:16:11.129Z,21.47
2018-10-18T00:18:47.371Z,13.63
2018-10-18T00:21:19.747Z,14.57
2018-10-18T00:23:52.581Z,18.13
2018-10-18T00:26:25.361Z,21.00
2018-10-18T00:28:58.962Z,26.83
2018-10-18T00:31:31.447Z,27.70
2018-10-18T00:34:15.171Z,27.17
2018-10-18T00:36:49.731Z,26.17
2018-10-18T00:40:08.483Z,22.97
2018-10-18T00:42:41.509Z,25.27
2018-10-18T00:45:16.009Z,31.67
2018-10-18T00:47:51.460Z,29.50
2018-10-18T00:53:44.312Z,29.60
2018-10-18T00:56:17.445Z,25.17
2018-10-18T01:02:22.637Z,26.93
2018-10-18T01:04:55.854Z,23.17
2018-10-18T01:07:29.284Z,22.23
2018-10-18T01:10:02.704Z,22.27
2018-10-18T01:12:36.006Z,23.37
2018-10-18T01:15:10.107Z,24.97
2018-10-18T01:21:04.397Z,26.30
2018-10-18T01:23:37.224Z,27.57
2018-10-18T01:26:11.696Z,23.47
2018-10-18T01:28:44.832Z,18.27
2018-10-18T01:31:17.645Z,23.23
2018-10-18T01:33:51.181Z,31.13
2018-10-18T01:36:25.182Z,27.53
2018-10-18T01:38:58.883Z,24.30
2018-10-18T01:41:32.867Z,23.60
2018-10-18T01:44:06.445Z,21.67
2018-10-18T01:46:40.132Z,16.90
2018-10-18T01:49:13.573Z,22.20
2018-10-18T01:51:49.535Z,17.83
2018-10-18T01:54:23.213Z,19.07
2018-10-18T01:56:56.641Z,16.13
2018-10-18T01:59:30.592Z,18.83
2018-10-18T02:02:04.056Z,16.20
2018-10-18T02:04:37.650Z,19.33
2018-10-18T02:07:11.047Z,17.80
2018-10-18T02:09:43.902Z,20.10
2018-10-18T02:12:17.520Z,22.37
2018-10-18T02:14:52.425Z,17.70
2018-10-18T02:17:26.068Z,17.73
2018-10-18T02:19:59.550Z,17.60
2018-10-18T02:22:32.937Z,15.33
2018-10-18T02:25:07.007Z,19.97
2018-10-18T02:27:39.830Z,23.30
2018-10-18T02:30:13.446Z,21.80
2018-10-18T02:32:46.298Z,19.30
2018-10-18T02:35:19.167Z,19.13
2018-10-18T02:37:52.046Z,19.97
2018-10-18T02:40:29.258Z,24.77
2018-10-18T02:43:02.994Z,19.43
2018-10-18T02:45:36.299Z,17.17
2018-10-18T02:48:09.839Z,24.90
2018-10-18T02:50:42.853Z,20.53
2018-10-18T02:53:17.441Z,15.47
2018-10-18T02:55:50.840Z,18.67
2018-10-18T02:58:27.977Z,21.70
2018-10-18T03:01:04.930Z,21.23
2018-10-18T03:03:38.048Z,20.73
2018-10-18T03:06:13.122Z,16.83
2018-10-18T03:08:47.508Z,15.90
2018-10-18T03:11:20.940Z,17.90
2018-10-18T03:13:54.309Z,18.27
2018-10-18T03:16:27.520Z,17.17
2018-10-18T03:19:01.677Z,19.30
2018-10-18T03:21:35.486Z,19.77
2018-10-18T03:24:08.730Z,20.53
2018-10-18T03:26:41.977Z,22.80
2018-10-18T03:29:15.162Z,22.47
2018-10-18T03:31:48.861Z,24.23
2018-10-18T03:34:22.184Z,23.27
2018-10-18T03:36:55.166Z,19.47
2018-10-18T03:39:29.205Z,19.67
2018-10-18T03:42:03.607Z,20.23
2018-10-18T03:44:36.883Z,16.60
2018-10-18T03:47:10.026Z,16.63
2018-10-18T03:49:43.316Z,22.83
2018-10-18T03:52:16.476Z,19.70
2018-10-18T03:55:33.465Z,21.90
2018-10-18T03:58:06.125Z,21.20
2018-10-18T04:00:39.136Z,16.80
2018-10-18T04:03:11.969Z,18.17
2018-10-18T04:05:45.381Z,21.53
2018-10-18T04:08:18.321Z,21.80
2018-10-18T04:10:51.867Z,23.17
2018-10-18T04:13:25.451Z,20.00
2018-10-18T04:15:59.452Z,22.07
2018-10-18T04:18:32.501Z,18.30
2018-10-18T04:21:05.709Z,17.93
2018-10-18T04:23:38.406Z,23.13
2018-10-18T04:26:11.440Z,18.93
2018-10-18T04:28:44.220Z,20.03
2018-10-18T04:31:17.117Z,18.83
2018-10-18T04:33:50.172Z,15.77
2018-10-18T04:36:23.215Z,18.63
2018-10-18T04:38:56.139Z,21.87
2018-10-18T04:41:31.847Z,17.60
2018-10-18T04:44:05.013Z,15.87
2018-10-18T04:46:37.817Z,14.50
2018-10-18T04:49:10.748Z,21.50
2018-10-18T04:51:43.770Z,18.17
2018-10-18T04:54:16.512Z,18.57
2018-10-18T04:56:49.552Z,20.50
2018-10-18T04:59:22.338Z,17.40
2018-10-18T05:01:55.368Z,20.87
2018-10-18T05:04:28.178Z,21.80
2018-10-18T05:07:01.179Z,19.23
2018-10-18T05:09:33.682Z,14.93
2018-10-18T05:12:05.963Z,14.07
2018-10-18T05:14:38.697Z,13.83
2018-10-18T05:17:11.357Z,18.93
2018-10-18T05:23:05.796Z,15.77
2018-10-18T05:28:59.744Z,14.83
2018-10-18T05:31:32.942Z,14.17
2018-10-18T05:34:06.033Z,15.53
2018-10-18T05:36:39.098Z,15.20
2018-10-18T05:39:14.483Z,16.63
2018-10-18T05:41:48.181Z,15.43
2018-10-18T05:44:21.164Z,15.60
2018-10-18T05:46:54.134Z,18.73
2018-10-18T05:49:27.016Z,17.97
2018-10-18T05:51:59.878Z,17.20
2018-10-18T05:54:33.339Z,13.30
2018-10-18T05:57:06.134Z,12.77
2018-10-18T05:59:38.797Z,13.37
2018-10-18T06:02:11.476Z,12.00
2018-10-18T06:04:44.323Z,13.90
2018-10-18T06:07:17.390Z,7.00
2018-10-18T06:09:50.795Z,7.07
2018-10-18T06:12:23.750Z,7.90
2018-10-18T06:14:56.942Z,12.57
2018-10-18T06:17:29.890Z,11.67
2018-10-18T06:20:03.075Z,11.73
2018-10-18T06:22:36.112Z,9.03
2018-10-18T06:25:09.693Z,11.50
2018-10-18T06:27:42.717Z,9.47
2018-10-18T06:30:16.990Z,8.77
2018-10-18T06:32:49.700Z,10.60
2018-10-18T06:35:22.772Z,9.30
2018-10-18T06:37:55.629Z,8.07
2018-10-18T06:40:28.608Z,8.87
2018-10-18T06:43:01.682Z,9.03
2018-10-18T06:45:34.570Z,9.93
2018-10-18T06:48:07.992Z,7.80
2018-10-18T06:50:40.712Z,9.17
2018-10-18T06:53:13.497Z,7.50
2018-10-18T06:55:46.294Z,8.03
2018-10-18T06:58:19.270Z,7.17
2018-10-18T07:00:53.874Z,5.73
2018-10-18T07:03:26.632Z,8.13
2018-10-18T07:05:59.499Z,6.30
2018-10-18T07:08:32.294Z,6.47
2018-10-18T07:11:05.105Z,7.43
2018-10-18T07:13:38.349Z,7.43
2018-10-18T07:16:11.292Z,7.80
2018-10-18T07:18:43.747Z,8.43
2018-10-18T07:21:16.789Z,8.97
2018-10-18T07:23:49.570Z,7.03
2018-10-18T07:26:22.379Z,6.60
2018-10-18T07:28:55.223Z,7.37
2018-10-18T07:31:28.246Z,7.30
2018-10-18T07:34:01.121Z,7.00
2018-10-18T07:36:34.302Z,7.20
2018-10-18T07:39:10.181Z,7.07
2018-10-18T07:41:43.651Z,7.17
2018-10-18T07:44:16.656Z,9.33
2018-10-18T07:46:49.628Z,9.13
2018-10-18T07:49:22.784Z,8.07
2018-10-18T07:51:56.752Z,8.40
2018-10-18T07:54:29.428Z,6.43
2018-10-18T07:57:02.065Z,6.87
2018-10-18T07:59:35.185Z,6.50
2018-10-18T08:02:08.459Z,7.27
2018-10-18T08:04:41.404Z,7.67
2018-10-18T08:07:14.482Z,6.83
2018-10-18T08:09:47.287Z,6.13
2018-10-18T08:12:20.054Z,9.03
2018-10-18T08:14:54.097Z,6.57
2018-10-18T08:17:27.316Z,7.00
2018-10-18T08:20:00.245Z,6.83
2018-10-18T08:22:33.673Z,6.07
2018-10-18T08:25:06.712Z,6.23
2018-10-18T08:27:39.573Z,5.93
2018-10-18T08:30:36.572Z,6.47
2018-10-18T08:33:09.881Z,6.07
2018-10-18T08:35:42.877Z,5.20
2018-10-18T08:38:16.207Z,5.53
2018-10-18T08:40:49.123Z,8.87
2018-10-18T08:43:22.805Z,9.63
2018-10-18T08:45:55.480Z,12.30
2018-10-18T08:48:28.512Z,13.53
2018-10-18T08:51:01.792Z,12.20
2018-10-18T08:53:34.741Z,14.80
2018-10-18T08:56:09.053Z,14.10
2018-10-18T08:58:41.927Z,7.33
2018-10-18T09:01:15.088Z,6.13
2018-10-18T09:03:48.054Z,6.87
2018-10-18T09:06:20.712Z,6.77
2018-10-18T09:08:53.453Z,8.20
2018-10-18T09:14:47.646Z,6.07
2018-10-18T09:17:21.127Z,6.77
2018-10-18T09:19:54.239Z,6.43
2018-10-18T09:22:27.280Z,9.23
2018-10-18T09:25:00.182Z,8.80
2018-10-18T09:27:33.506Z,7.80
2018-10-18T09:30:06.628Z,7.20
2018-10-18T09:36:00.132Z,8.13
2018-10-18T09:38:33.210Z,9.40
2018-10-18T09:41:06.240Z,7.40
2018-10-18T09:43:39.382Z,9.47
2018-10-18T09:46:12.404Z,12.47
2018-10-18T09:48:45.701Z,16.30
2018-10-18T09:51:18.816Z,15.37
2018-10-18T09:53:51.659Z,12.53
2018-10-18T09:56:24.573Z,14.97
2018-10-18T09:58:57.535Z,16.77
2018-10-18T10:01:34.749Z,12.67
2018-10-18T10:04:07.766Z,12.50
2018-10-18T10:06:40.639Z,12.13
2018-10-18T10:09:13.708Z,12.30
2018-10-18T10:11:46.371Z,16.53
2018-10-18T10:14:19.104Z,18.93
2018-10-18T10:17:37.347Z,14.70
2018-10-18T10:20:10.689Z,11.17
2018-10-18T10:22:43.781Z,23.13
2018-10-18T10:25:16.513Z,11.27
2018-10-18T10:27:49.961Z,13.07
2018-10-18T10:30:59.897Z,18.20
2018-10-18T10:33:32.743Z,14.83
2018-10-18T10:36:05.923Z,18.97
2018-10-18T10:38:39.777Z,18.23
2018-10-18T10:41:12.812Z,19.00
2018-10-18T10:43:45.830Z,11.07
2018-10-18T10:46:18.391Z,9.70
2018-10-18T10:48:51.245Z,9.37
2018-10-18T10:51:24.372Z,7.47
2018-10-18T10:53:57.605Z,12.87
2018-10-18T10:56:31.289Z,11.40
2018-10-18T10:59:09.635Z,12.63
2018-10-18T11:05:03.486Z,9.50
2018-10-18T11:07:36.494Z,10.50
2018-10-18T11:10:09.315Z,19.30
2018-10-18T11:12:42.207Z,10.07
2018-10-18T11:15:15.362Z,14.67
2018-10-18T11:17:48.482Z,12.13
2018-10-18T11:20:21.236Z,11.73
2018-10-18T11:22:53.982Z,11.90
2018-10-18T11:25:57.167Z,14.63
2018-10-18T11:28:29.579Z,13.07
2018-10-18T11:31:02.157Z,15.73
2018-10-18T11:33:34.842Z,15.47
2018-10-18T11:36:07.931Z,17.33
2018-10-18T11:38:41.161Z,11.67
2018-10-18T11:41:13.954Z,11.17
2018-10-18T11:43:48.271Z,10.97
2018-10-18T11:46:21.362Z,15.90
2018-10-18T11:48:54.975Z,16.53
2018-10-18T11:51:28.051Z,10.03
2018-10-18T11:54:01.058Z,10.03
2018-10-18T11:56:33.465Z,14.73
2018-10-18T11:59:06.577Z,12.67
2018-10-18T12:01:39.513Z,17.37
2018-10-18T12:04:13.663Z,13.27
2018-10-18T12:06:46.795Z,11.87
2018-10-18T12:09:19.839Z,11.40
2018-10-18T12:11:52.516Z,14.80
2018-10-18T12:14:25.129Z,19.47
2018-10-18T12:16:58.365Z,13.73
2018-10-18T12:19:32.177Z,11.57
2018-10-18T12:22:04.715Z,16.63
2018-10-18T12:24:37.667Z,17.03
2018-10-18T12:27:11.104Z,12.43
2018-10-18T12:29:44.742Z,12.97
2018-10-18T12:32:18.176Z,15.23
2018-10-18T12:34:51.663Z,13.93
2018-10-18T12:40:45.506Z,13.03
2018-10-18T12:43:18.775Z,15.70
2018-10-18T12:45:52.139Z,15.53
2018-10-18T12:48:25.533Z,15.63
2018-10-18T12:50:58.562Z,15.17
2018-10-18T12:53:31.036Z,15.23
2018-10-18T12:56:03.580Z,19.97
2018-10-18T12:58:37.000Z,15.10
2018-10-18T13:01:09.851Z,14.50
2018-10-18T13:03:42.952Z,18.17
2018-10-18T13:06:20.432Z,16.20
2018-10-18T13:08:53.681Z,17.63
2018-10-18T13:11:26.833Z,16.60
2018-10-18T13:13:59.840Z,16.97
2018-10-18T13:16:35.632Z,14.80
2018-10-18T13:19:12.000Z,17.97
2018-10-18T13:21:54.718Z,12.57
2018-10-18T13:24:28.895Z,14.20
2018-10-18T13:27:02.631Z,13.73
2018-10-18T13:29:35.682Z,16.13
2018-10-18T13:32:11.447Z,9.20
2018-10-18T13:34:46.892Z,13.27
2018-10-18T13:37:23.491Z,6.87
2018-10-18T13:39:56.994Z,10.97
2018-10-18T13:42:32.171Z,10.77
2018-10-18T13:45:05.502Z,11.80
2018-10-18T13:47:38.403Z,7.10
2018-10-18T13:50:11.912Z,6.67
2018-10-18T13:52:45.477Z,13.20
2018-10-18T13:55:18.453Z,18.10
2018-10-18T13:57:51.630Z,16.47
2018-10-18T14:00:29.190Z,16.63
2018-10-18T14:03:01.812Z,13.00
2018-10-18T14:05:35.143Z,14.70
2018-10-18T14:08:11.037Z,13.10
2018-10-18T14:10:45.213Z,19.77
2018-10-18T14:16:42.844Z,152.37
2018-10-18T14:19:16.281Z,200.27
2018-10-18T14:21:52.495Z,185.97
2018-10-18T14:24:26.553Z,107.03
2018-10-18T14:27:05.179Z,98.83
2018-10-18T14:29:40.359Z,43.23
2018-10-18T14:32:13.139Z,22.80
2018-10-18T14:34:46.316Z,12.73
2018-10-18T14:38:33.779Z,21.20
2018-10-18T14:41:07.362Z,15.03
2018-10-18T14:43:40.570Z,8.97
2018-10-18T14:46:17.022Z,12.83
2018-10-18T14:49:01.268Z,13.43
2018-10-18T14:51:35.361Z,6.73
2018-10-18T15:07:16.340Z,10.10
2018-10-18T15:09:50.759Z,11.80
2018-10-18T15:12:23.314Z,7.90
2018-10-18T15:14:56.647Z,9.43
2018-10-18T15:17:30.283Z,7.13
2018-10-18T15:20:03.523Z,8.13
2018-10-18T15:22:36.864Z,9.10
2018-10-18T15:25:11.571Z,10.10
2018-10-18T15:27:45.618Z,9.23
2018-10-18T15:30:18.762Z,10.23
2018-10-18T15:32:52.199Z,11.50
2018-10-18T15:38:49.620Z,13.67
2018-10-18T15:41:21.921Z,13.70
2018-10-18T15:43:54.799Z,11.23
2018-10-18T15:46:27.327Z,8.57
2018-10-18T15:49:00.251Z,13.67
2018-10-18T15:51:39.157Z,18.10
2018-10-18T15:54:11.669Z,10.97
2018-10-18T15:56:45.079Z,7.43
2018-10-18T15:59:31.271Z,10.70
2018-10-18T16:02:04.409Z,9.07
2018-10-18T16:04:36.789Z,10.23
2018-10-18T16:07:09.115Z,7.40
2018-10-18T16:09:41.501Z,6.40
2018-10-18T16:15:45.507Z,9.60
2018-10-18T16:18:18.754Z,4.97
2018-10-18T16:20:51.409Z,10.73
2018-10-18T16:23:23.881Z,11.60
2018-10-18T16:25:56.476Z,8.33
2018-10-18T16:28:28.793Z,4.75
2018-10-18T16:31:01.217Z,7.87
2018-10-18T16:33:34.522Z,3.40
2018-10-18T16:36:07.196Z,4.87
2018-10-18T16:38:40.202Z,4.75
2018-10-18T16:41:13.681Z,3.50
2018-10-18T16:43:47.032Z,4.03
2018-10-18T16:46:19.732Z,4.20
2018-10-18T16:48:52.846Z,5.33
2018-10-18T16:51:26.344Z,7.12
2018-10-18T16:53:59.040Z,4.83
2018-10-18T16:56:31.714Z,5.22
2018-10-18T16:59:04.445Z,4.25
2018-10-18T17:01:36.981Z,4.60
2018-10-18T17:04:10.233Z,4.45
2018-10-18T17:06:43.384Z,4.97
2018-10-18T17:09:15.754Z,4.37
2018-10-18T17:11:48.149Z,4.92
2018-10-18T17:14:20.870Z,3.65
2018-10-18T17:16:53.505Z,6.92
2018-10-18T17:19:28.433Z,5.00
2018-10-18T17:22:00.946Z,9.43
2018-10-18T17:24:33.260Z,6.73
2018-10-18T17:27:06.287Z,13.20
2018-10-18T17:29:38.944Z,7.60
2018-10-18T17:32:11.524Z,13.13
2018-10-18T17:34:44.563Z,5.85
2018-10-18T17:37:17.647Z,6.70
2018-10-18T17:39:50.157Z,6.65
2018-10-18T17:42:24.536Z,5.53
2018-10-18T17:44:57.635Z,8.87
2018-10-18T17:47:31.866Z,4.35
2018-10-18T17:50:07.555Z,5.63
2018-10-18T17:52:40.117Z,4.72
2018-10-18T17:55:13.368Z,11.73
2018-10-18T17:57:45.751Z,5.10
2018-10-18T18:00:22.918Z,5.15
2018-10-18T18:02:56.104Z,5.40
2018-10-18T18:05:28.862Z,6.58
2018-10-18T18:08:01.927Z,7.20
2018-10-18T18:10:34.858Z,5.40
2018-10-18T18:13:08.017Z,7.33
2018-10-18T18:15:41.419Z,6.78
2018-10-18T18:18:13.954Z,4.25
2018-10-18T18:20:46.626Z,9.10
2018-10-18T18:23:19.078Z,5.10
2018-10-18T18:25:53.010Z,10.30
2018-10-18T18:28:25.908Z,4.47
2018-10-18T18:30:59.621Z,6.05
2018-10-18T18:33:32.428Z,6.40
2018-10-18T18:36:05.249Z,7.47
2018-10-18T18:38:37.718Z,7.90
2018-10-18T18:41:15.884Z,7.47
2018-10-18T18:43:49.088Z,7.67
2018-10-18T18:46:21.723Z,10.43
2018-10-18T18:48:54.605Z,5.80
2018-10-18T18:51:27.081Z,8.63
2018-10-18T18:54:00.977Z,8.98
2018-10-18T18:56:34.596Z,16.93
2018-10-18T18:59:07.696Z,7.13
2018-10-18T19:01:40.850Z,8.80
2018-10-18T19:04:13.761Z,6.80
2018-10-18T19:06:47.833Z,9.57
2018-10-18T19:09:40.019Z,4.33
2018-10-18T19:12:15.564Z,6.93
2018-10-18T19:14:50.884Z,11.30
2018-10-18T19:17:59.659Z,9.13
2018-10-18T19:20:32.173Z,22.97
2018-10-18T19:23:04.641Z,13.03
2018-10-18T19:25:39.604Z,17.53
2018-10-18T19:28:12.663Z,15.63
2018-10-18T19:30:45.219Z,17.17
2018-10-18T19:33:18.160Z,16.93
2018-10-18T19:35:51.511Z,28.90
2018-10-18T19:38:26.297Z,22.67
2018-10-18T19:40:58.807Z,28.47
2018-10-18T19:43:34.130Z,19.07
2018-10-18T19:46:07.911Z,13.77
2018-10-18T19:48:40.511Z,18.20
2018-10-18T19:51:12.859Z,18.43
2018-10-18T19:53:45.381Z,19.40
2018-10-18T19:56:18.031Z,18.37
2018-10-18T19:58:50.960Z,19.37
2018-10-18T20:01:23.192Z,14.93
2018-10-18T20:03:56.328Z,19.50
2018-10-18T20:06:29.722Z,16.13
2018-10-18T20:09:03.743Z,21.37
2018-10-18T20:11:37.536Z,10.60
2018-10-18T20:14:12.092Z,19.50
2018-10-18T20:16:45.155Z,13.33
2018-10-18T20:19:18.198Z,11.10
2018-10-18T20:21:53.152Z,9.73
2018-10-18T20:24:26.822Z,9.30
2018-10-18T20:27:00.571Z,11.40
2018-10-18T20:29:34.596Z,14.27
2018-10-18T20:32:08.635Z,7.30
2018-10-18T20:34:41.749Z,13.22
2018-10-18T20:37:14.431Z,9.60
2018-10-18T20:39:47.479Z,7.30
2018-10-18T20:42:20.556Z,7.25
2018-10-18T20:44:54.670Z,12.80
2018-10-18T20:47:27.732Z,8.80
2018-10-18T20:50:00.976Z,11.10
2018-10-18T20:52:34.987Z,14.63
2018-10-18T20:55:11.420Z,12.07
2018-10-18T20:57:47.611Z,24.83
2018-10-18T21:00:21.142Z,22.93
2018-10-18T21:02:54.413Z,27.93
2018-10-18T21:05:28.294Z,28.60
2018-10-18T21:08:01.822Z,23.93
2018-10-18T21:10:35.957Z,26.83
2018-10-18T21:13:08.816Z,25.57
2018-10-18T21:15:42.771Z,15.17
2018-10-18T21:18:16.951Z,17.33
2018-10-18T21:20:54.703Z,21.47
2018-10-18T21:23:27.737Z,10.43
2018-10-18T21:26:02.514Z,77.93
2018-10-18T21:28:34.805Z,33.23
2018-10-18T21:31:08.264Z,55.30
2018-10-18T21:33:41.244Z,19.10
2018-10-18T21:36:14.966Z,25.97
2018-10-18T21:38:47.445Z,29.23
2018-10-18T21:41:23.589Z,8.53
2018-10-18T21:43:55.913Z,8.83
2018-10-18T21:46:28.911Z,14.97
2018-10-18T21:49:02.541Z,17.87
2018-10-18T21:51:35.146Z,12.83
2018-10-18T21:54:08.135Z,29.70
2018-10-18T21:56:41.321Z,24.70
2018-10-18T21:59:13.945Z,23.77
2018-10-18T22:01:54.711Z,36.00
2018-10-18T22:04:59.461Z,18.80
2018-10-18T22:08:02.592Z,15.90
2018-10-18T22:10:58.504Z,15.13
2018-10-18T22:13:31.604Z,21.93
2018-10-18T22:16:04.328Z,25.27
2018-10-18T22:18:36.721Z,20.17
2018-10-18T22:21:09.205Z,13.17
2018-10-18T22:23:41.863Z,14.23
2018-10-18T22:26:14.252Z,16.20
2018-10-18T22:28:46.843Z,19.70
2018-10-18T22:31:19.313Z,17.77
2018-10-18T22:33:52.918Z,20.77
2018-10-18T22:36:26.033Z,26.47
2018-10-18T22:38:59.258Z,29.20
2018-10-18T22:41:32.247Z,18.03
2018-10-18T22:44:05.009Z,20.80
2018-10-18T22:46:37.436Z,27.23
2018-10-18T22:49:09.699Z,26.40
2018-10-18T22:51:42.586Z,27.03
2018-10-18T22:54:14.974Z,22.90
2018-10-18T22:56:47.904Z,19.40
2018-10-18T22:59:22.103Z,17.57
2018-10-18T23:01:55.717Z,30.77
2018-10-18T23:04:28.620Z,32.00
2018-10-18T23:07:01.041Z,26.03
2018-10-18T23:09:33.287Z,47.73
2018-10-18T23:12:05.705Z,37.77
2018-10-18T23:14:38.081Z,28.93
2018-10-18T23:17:10.714Z,17.87
2018-10-18T23:19:43.015Z,30.57
2018-10-18T23:22:15.464Z,38.60
2018-10-18T23:28:10.883Z,50.17
2018-10-18T23:30:44.550Z,31.87
2018-10-18T23:33:22.684Z,20.63
2018-10-18T23:35:56.207Z,22.20
2018-10-18T23:38:29.224Z,13.50
2018-10-18T23:41:02.604Z,13.67
2018-10-18T23:43:36.074Z,16.93
2018-10-18T23:46:09.669Z,73.20
2018-10-18T23:48:42.712Z,18.60
2018-10-18T23:51:43.986Z,22.53
2018-10-18T23:54:17.060Z,49.93
2018-10-18T23:56:49.769Z,34.03
2018-10-18T23:59:22.438Z,31.13
